createdAt,value
2023-03-25T00:00:28.821Z,1.70
2023-03-25T00:03:11.494Z,1.80
2023-03-25T00:05:54.295Z,1.90
2023-03-25T00:08:38.588Z,1.83
2023-03-25T00:11:21.383Z,1.70
2023-03-25T00:14:04.459Z,1.95
2023-03-25T00:16:48.550Z,1.45
2023-03-25T00:19:31.369Z,1.75
2023-03-25T00:22:14.000Z,1.80
2023-03-25T00:24:58.243Z,2.00
2023-03-25T00:27:40.815Z,1.80
2023-03-25T00:30:23.448Z,1.65
2023-03-25T00:33:06.174Z,1.77
2023-03-25T00:35:52.750Z,1.70
2023-03-25T00:38:37.773Z,1.90
2023-03-25T00:41:25.361Z,2.33
2023-03-25T00:44:08.091Z,2.00
2023-03-25T00:46:51.130Z,2.22
2023-03-25T00:49:33.730Z,1.80
2023-03-25T00:52:16.816Z,2.10
2023-03-25T00:54:59.425Z,1.95
2023-03-25T00:57:44.077Z,2.20
2023-03-25T01:00:27.168Z,2.28
2023-03-25T01:03:09.881Z,2.30
2023-03-25T01:05:54.683Z,2.10
2023-03-25T01:08:37.298Z,1.88
2023-03-25T01:11:20.876Z,2.35
2023-03-25T01:14:07.695Z,2.40
2023-03-25T01:16:50.279Z,2.13
2023-03-25T01:19:32.893Z,2.30
2023-03-25T01:22:15.498Z,2.53
2023-03-25T01:24:58.124Z,2.53
2023-03-25T01:27:40.803Z,2.33
2023-03-25T01:30:24.732Z,2.20
2023-03-25T01:33:07.666Z,2.00
2023-03-25T01:35:50.421Z,2.35
2023-03-25T01:38:33.922Z,1.98
2023-03-25T01:41:16.689Z,2.20
2023-03-25T01:44:03.151Z,1.88
2023-03-25T01:46:49.276Z,2.17
2023-03-25T01:49:34.113Z,1.90
2023-03-25T01:52:19.782Z,2.40
2023-03-25T01:55:02.443Z,2.00
2023-03-25T01:57:46.057Z,2.13
2023-03-25T02:00:28.951Z,1.80
2023-03-25T02:03:13.733Z,1.92
2023-03-25T02:05:57.935Z,2.03
2023-03-25T02:08:41.631Z,1.52
2023-03-25T02:11:28.955Z,1.73
2023-03-25T02:14:13.599Z,1.88
2023-03-25T02:17:02.040Z,2.00
2023-03-25T02:20:08.999Z,2.10
2023-03-25T02:23:01.823Z,1.63
2023-03-25T02:26:10.845Z,2.00
2023-03-25T02:28:56.124Z,1.90
2023-03-25T02:31:50.752Z,2.00
2023-03-25T02:34:37.967Z,2.05
2023-03-25T02:37:35.307Z,1.98
2023-03-25T02:40:21.886Z,2.08
2023-03-25T02:43:06.531Z,2.15
2023-03-25T02:45:52.622Z,1.80
2023-03-25T02:48:39.636Z,2.08
2023-03-25T02:51:25.238Z,2.00
2023-03-25T02:54:11.217Z,2.30
2023-03-25T02:56:57.620Z,1.90
2023-03-25T02:59:41.132Z,2.30
2023-03-25T03:02:26.230Z,2.13
2023-03-25T03:05:21.893Z,2.25
2023-03-25T03:08:14.658Z,2.13
2023-03-25T03:11:02.123Z,2.15
2023-03-25T03:14:01.402Z,1.90
2023-03-25T03:16:49.949Z,1.90
2023-03-25T03:19:38.117Z,1.95
2023-03-25T03:22:40.611Z,1.70
2023-03-25T03:25:27.420Z,1.75
2023-03-25T03:28:11.361Z,1.63
2023-03-25T03:30:59.505Z,2.00
2023-03-25T03:33:50.653Z,1.73
2023-03-25T03:36:36.313Z,1.80
2023-03-25T03:39:21.197Z,1.80
2023-03-25T03:42:05.593Z,1.83
2023-03-25T03:44:51.097Z,1.90
2023-03-25T03:47:37.849Z,1.80
2023-03-25T03:50:22.063Z,1.83
2023-03-25T03:53:07.534Z,1.52
2023-03-25T03:55:53.194Z,1.75
2023-03-25T03:58:37.969Z,1.73
2023-03-25T04:01:27.874Z,1.70
2023-03-25T04:04:12.283Z,1.80
2023-03-25T04:06:58.644Z,2.20
2023-03-25T04:09:46.586Z,1.80
2023-03-25T04:12:30.190Z,1.80
2023-03-25T04:15:13.530Z,1.90
2023-03-25T04:17:56.157Z,1.50
2023-03-25T04:20:44.877Z,1.80
2023-03-25T04:23:29.894Z,1.55
2023-03-25T04:26:13.193Z,1.23
2023-03-25T04:28:55.852Z,1.55
2023-03-25T04:31:46.299Z,1.27
2023-03-25T04:34:29.817Z,1.50
2023-03-25T04:37:13.981Z,1.55
2023-03-25T04:40:00.086Z,1.65
2023-03-25T04:42:43.954Z,1.50
2023-03-25T04:45:28.828Z,1.40
2023-03-25T04:48:19.930Z,1.27
2023-03-25T04:51:03.413Z,1.17
2023-03-25T04:53:47.405Z,1.40
2023-03-25T04:56:30.244Z,1.27
2023-03-25T04:59:12.924Z,1.00
2023-03-25T05:01:55.596Z,0.90
2023-03-25T05:04:38.238Z,1.25
2023-03-25T05:07:20.880Z,0.90
2023-03-25T05:10:04.996Z,0.80
2023-03-25T05:12:47.788Z,0.70
2023-03-25T05:15:32.529Z,0.80
2023-03-25T05:18:16.631Z,1.10
2023-03-25T05:21:00.882Z,1.10
2023-03-25T05:23:43.523Z,1.30
2023-03-25T05:26:34.207Z,1.08
2023-03-25T05:29:17.215Z,1.08
2023-03-25T05:31:59.912Z,1.23
2023-03-25T05:34:42.807Z,1.08
2023-03-25T05:37:25.537Z,0.98
2023-03-25T05:40:15.020Z,0.90
2023-03-25T05:42:59.530Z,0.98
2023-03-25T05:45:42.191Z,1.02
2023-03-25T05:48:24.845Z,1.52
2023-03-25T05:51:08.115Z,1.25
2023-03-25T05:53:50.798Z,1.30
2023-03-25T05:56:33.468Z,1.20
2023-03-25T05:59:17.995Z,1.23
2023-03-25T06:02:01.058Z,1.23
2023-03-25T06:04:44.248Z,1.20
2023-03-25T06:07:26.845Z,1.20
2023-03-25T06:10:09.960Z,1.13
2023-03-25T06:12:54.081Z,1.00
2023-03-25T06:15:40.669Z,1.20
2023-03-25T06:18:25.649Z,1.17
2023-03-25T06:21:08.669Z,1.25
2023-03-25T06:23:51.547Z,1.10
2023-03-25T06:26:34.170Z,1.00
2023-03-25T06:29:17.461Z,1.40
2023-03-25T06:32:01.380Z,1.13
2023-03-25T06:34:44.758Z,1.27
2023-03-25T06:37:28.292Z,1.33
2023-03-25T06:40:12.478Z,1.13
2023-03-25T06:42:55.177Z,1.52
2023-03-25T06:46:01.033Z,1.02
2023-03-25T06:49:20.422Z,1.40
2023-03-25T06:52:03.296Z,1.55
2023-03-25T06:54:45.921Z,1.40
2023-03-25T06:57:28.538Z,1.40
2023-03-25T07:00:12.729Z,1.30
2023-03-25T07:02:55.521Z,1.30
2023-03-25T07:05:41.824Z,1.52
2023-03-25T07:08:24.626Z,1.50
2023-03-25T07:11:08.295Z,1.50
2023-03-25T07:13:53.806Z,1.10
2023-03-25T07:16:36.470Z,1.40
2023-03-25T07:19:19.139Z,1.30
2023-03-25T07:22:03.161Z,1.30
2023-03-25T07:24:48.643Z,1.40
2023-03-25T07:27:31.532Z,1.38
2023-03-25T07:30:20.130Z,1.45
2023-03-25T07:33:02.822Z,1.40
2023-03-25T07:35:45.859Z,1.40
2023-03-25T07:38:29.870Z,1.60
2023-03-25T07:41:15.570Z,1.55
2023-03-25T07:44:20.389Z,1.63
2023-03-25T07:47:04.531Z,1.27
2023-03-25T07:49:47.744Z,1.63
2023-03-25T07:52:30.383Z,1.70
2023-03-25T07:55:14.733Z,1.10
2023-03-25T07:57:58.566Z,1.42
2023-03-25T08:00:41.181Z,1.42
2023-03-25T08:03:24.055Z,1.42
2023-03-25T08:06:06.982Z,1.27
2023-03-25T08:08:49.566Z,1.70
2023-03-25T08:11:34.409Z,1.70
2023-03-25T08:14:17.329Z,1.10
2023-03-25T08:17:00.001Z,1.25
2023-03-25T08:19:42.680Z,1.45
2023-03-25T08:22:25.476Z,1.42
2023-03-25T08:25:08.744Z,1.15
2023-03-25T08:27:52.709Z,1.20
2023-03-25T08:30:38.769Z,1.40
2023-03-25T08:33:21.847Z,1.25
2023-03-25T08:36:04.872Z,1.15
2023-03-25T08:38:47.557Z,1.35
2023-03-25T08:41:30.176Z,1.35
2023-03-25T08:44:14.183Z,1.30
2023-03-25T08:46:56.785Z,1.00
2023-03-25T08:49:39.428Z,1.15
2023-03-25T08:52:22.059Z,1.35
2023-03-25T08:55:05.070Z,1.52
2023-03-25T08:57:47.762Z,1.30
2023-03-25T09:00:32.328Z,1.20
2023-03-25T09:03:15.024Z,1.13
2023-03-25T09:05:57.744Z,1.25
2023-03-25T09:08:40.642Z,0.95
2023-03-25T09:11:34.046Z,1.00
2023-03-25T09:14:19.441Z,1.20
2023-03-25T09:17:03.497Z,1.30
2023-03-25T09:19:46.511Z,0.90
2023-03-25T09:22:29.180Z,1.10
2023-03-25T09:25:12.134Z,0.93
2023-03-25T09:27:54.881Z,0.90
2023-03-25T09:30:37.525Z,0.60
2023-03-25T09:33:21.519Z,0.50
2023-03-25T09:36:04.320Z,0.82
2023-03-25T09:38:46.944Z,0.52
2023-03-25T09:41:41.598Z,0.57
2023-03-25T09:44:27.752Z,0.80
2023-03-25T09:47:14.981Z,0.70
2023-03-25T09:50:01.832Z,0.60
2023-03-25T09:52:50.794Z,0.70
2023-03-25T09:55:35.434Z,0.70
2023-03-25T09:58:29.557Z,0.50
2023-03-25T10:01:19.239Z,0.52
2023-03-25T10:04:10.451Z,0.77
2023-03-25T10:06:58.849Z,0.60
2023-03-25T10:09:46.392Z,0.45
2023-03-25T10:12:34.254Z,0.70
2023-03-25T10:15:27.574Z,0.70
2023-03-25T10:18:19.227Z,0.60
2023-03-25T10:21:04.665Z,0.70
2023-03-25T10:23:52.032Z,0.77
2023-03-25T10:26:38.217Z,0.80
2023-03-25T10:29:22.840Z,0.93
2023-03-25T10:32:08.755Z,0.80
2023-03-25T10:34:52.855Z,0.60
2023-03-25T10:37:39.862Z,0.70
2023-03-25T10:40:27.202Z,0.75
2023-03-25T10:43:15.128Z,0.63
2023-03-25T10:45:59.236Z,0.93
2023-03-25T10:48:41.936Z,1.10
2023-03-25T10:51:27.414Z,1.10
2023-03-25T10:54:11.357Z,0.93
2023-03-25T10:56:56.725Z,0.90
2023-03-25T10:59:43.383Z,1.00
2023-03-25T11:02:27.924Z,1.00
2023-03-25T11:05:11.570Z,0.80
2023-03-25T11:07:55.261Z,0.75
2023-03-25T11:10:38.774Z,1.00
2023-03-25T11:13:24.563Z,0.80
2023-03-25T11:16:08.244Z,0.93
2023-03-25T11:18:52.673Z,1.45
2023-03-25T11:21:36.486Z,0.80
2023-03-25T11:24:19.918Z,0.95
2023-03-25T11:27:04.071Z,1.17
2023-03-25T11:29:53.239Z,0.82
2023-03-25T11:32:36.860Z,0.60
2023-03-25T11:35:23.170Z,0.63
2023-03-25T11:38:15.132Z,0.50
2023-03-25T11:40:58.624Z,0.60
2023-03-25T11:43:41.888Z,0.40
2023-03-25T11:46:26.288Z,0.50
2023-03-25T11:49:10.160Z,0.40
2023-03-25T11:51:58.218Z,0.40
2023-03-25T11:54:41.569Z,0.52
2023-03-25T11:57:25.542Z,0.50
2023-03-25T12:00:18.291Z,0.40
2023-03-25T12:03:03.459Z,0.50
2023-03-25T12:05:57.558Z,0.50
2023-03-25T12:08:44.408Z,0.70
2023-03-25T12:11:29.578Z,0.70
2023-03-25T12:14:17.759Z,0.52
2023-03-25T12:17:05.327Z,0.60
2023-03-25T12:19:54.458Z,0.75
2023-03-25T12:22:43.364Z,0.68
2023-03-25T12:25:28.137Z,0.57
2023-03-25T12:28:23.819Z,0.43
2023-03-25T12:31:11.233Z,0.50
2023-03-25T12:34:00.139Z,0.50
2023-03-25T12:36:48.897Z,0.60
2023-03-25T12:39:44.005Z,0.80
2023-03-25T12:42:33.411Z,0.70
2023-03-25T12:45:34.282Z,0.90
2023-03-25T12:48:24.015Z,0.65
2023-03-25T12:51:14.372Z,0.60
2023-03-25T12:54:04.071Z,0.80
2023-03-25T12:56:50.514Z,0.70
2023-03-25T12:59:48.330Z,0.77
2023-03-25T13:02:37.791Z,0.80
2023-03-25T13:05:23.027Z,0.82
2023-03-25T13:08:09.225Z,0.68
2023-03-25T13:10:57.565Z,0.63
2023-03-25T13:13:41.125Z,0.60
2023-03-25T13:16:25.862Z,0.60
2023-03-25T13:19:11.401Z,0.50
2023-03-25T13:21:57.361Z,0.45
2023-03-25T13:24:43.401Z,0.70
2023-03-25T13:27:32.187Z,0.60
2023-03-25T13:30:17.664Z,0.60
2023-03-25T13:33:04.671Z,0.45
2023-03-25T13:35:48.956Z,0.40
2023-03-25T13:38:33.199Z,0.50
2023-03-25T13:41:17.951Z,0.63
2023-03-25T13:44:05.276Z,0.50
2023-03-25T13:46:49.510Z,0.60
2023-03-25T13:49:34.981Z,0.50
2023-03-25T13:52:18.517Z,0.50
2023-03-25T13:55:04.904Z,0.40
2023-03-25T13:58:00.345Z,0.50
2023-03-25T14:01:01.849Z,0.50
2023-03-25T14:04:09.569Z,0.50
2023-03-25T14:07:07.067Z,0.50
2023-03-25T14:10:10.522Z,0.57
2023-03-25T14:12:54.450Z,0.60
2023-03-25T14:15:38.988Z,0.40
2023-03-25T14:18:21.988Z,0.70
2023-03-25T14:21:16.761Z,0.55
2023-03-25T14:24:06.854Z,0.50
2023-03-25T14:26:50.470Z,0.50
2023-03-25T14:29:36.093Z,0.50
2023-03-25T14:32:33.731Z,0.75
2023-03-25T14:35:47.172Z,0.60
2023-03-25T14:38:47.718Z,0.50
2023-03-25T14:41:57.458Z,0.50
2023-03-25T14:44:42.093Z,0.52
2023-03-25T14:47:30.300Z,0.55
2023-03-25T14:50:32.034Z,0.63
2023-03-25T14:53:14.794Z,0.40
2023-03-25T14:55:57.572Z,0.40
2023-03-25T14:58:41.740Z,0.70
2023-03-25T15:01:30.125Z,0.55
2023-03-25T15:04:15.274Z,0.60
2023-03-25T15:06:58.568Z,0.50
2023-03-25T15:09:50.467Z,0.70
2023-03-25T15:12:33.226Z,0.40
2023-03-25T15:15:28.414Z,0.60
2023-03-25T15:18:11.464Z,0.60
2023-03-25T15:20:54.192Z,1.13
2023-03-25T15:23:41.275Z,0.30
2023-03-25T15:26:28.088Z,0.70
2023-03-25T15:29:17.876Z,0.40
2023-03-25T15:32:07.965Z,0.50
2023-03-25T15:35:00.191Z,0.80
2023-03-25T15:38:00.384Z,0.70
2023-03-25T15:40:50.695Z,0.98
2023-03-25T15:43:57.810Z,0.70
2023-03-25T15:47:01.447Z,1.10
2023-03-25T15:49:52.608Z,0.75
2023-03-25T15:52:44.196Z,0.80
2023-03-25T15:55:29.608Z,0.50
2023-03-25T15:58:14.137Z,0.80
2023-03-25T16:00:58.554Z,0.70
2023-03-25T16:03:42.617Z,0.60
2023-03-25T16:06:27.981Z,0.57
2023-03-25T16:09:15.945Z,0.70
2023-03-25T16:12:01.921Z,0.60
2023-03-25T16:14:45.465Z,1.00
2023-03-25T16:17:32.394Z,0.88
2023-03-25T16:20:18.162Z,0.50
2023-03-25T16:23:03.215Z,0.85
2023-03-25T16:25:48.833Z,0.70
2023-03-25T16:28:33.032Z,0.60
2023-03-25T16:31:28.504Z,0.60
2023-03-25T16:34:14.622Z,0.75
2023-03-25T16:36:57.274Z,0.60
2023-03-25T16:39:41.406Z,0.95
2023-03-25T16:42:27.415Z,0.77
2023-03-25T16:45:15.409Z,1.02
2023-03-25T16:47:58.277Z,0.50
2023-03-25T16:50:41.991Z,1.02
2023-03-25T16:53:24.828Z,0.90
2023-03-25T16:56:21.953Z,0.50
2023-03-25T16:59:06.261Z,0.63
2023-03-25T17:01:52.309Z,0.50
2023-03-25T17:04:41.775Z,0.40
2023-03-25T17:07:26.692Z,0.40
2023-03-25T17:10:15.814Z,0.40
2023-03-25T17:13:02.772Z,0.32
2023-03-25T17:15:49.193Z,0.40
2023-03-25T17:18:32.546Z,0.40
2023-03-25T17:21:22.286Z,0.50
2023-03-25T17:24:08.733Z,0.50
2023-03-25T17:26:55.246Z,0.30
2023-03-25T17:29:49.558Z,0.45
2023-03-25T17:32:43.444Z,0.50
2023-03-25T17:35:28.044Z,0.50
2023-03-25T17:38:14.420Z,0.40
2023-03-25T17:41:00.903Z,0.45
2023-03-25T17:43:44.725Z,0.60
2023-03-25T17:46:30.093Z,0.60
2023-03-25T17:49:15.104Z,0.50
2023-03-25T17:51:58.256Z,0.60
2023-03-25T17:54:40.950Z,0.73
2023-03-25T17:57:23.601Z,0.80
2023-03-25T18:00:10.877Z,0.60
2023-03-25T18:02:54.915Z,0.73
2023-03-25T18:05:37.773Z,0.80
2023-03-25T18:08:21.150Z,0.70
2023-03-25T18:11:03.794Z,0.60
2023-03-25T18:13:47.985Z,0.82
2023-03-25T18:16:30.705Z,0.90
2023-03-25T18:19:16.202Z,1.08
2023-03-25T18:22:06.961Z,1.00
2023-03-25T18:24:56.663Z,0.90
2023-03-25T18:27:43.661Z,0.80
2023-03-25T18:30:28.258Z,0.90
2023-03-25T18:33:11.125Z,1.00
2023-03-25T18:35:56.336Z,0.85
2023-03-25T18:38:39.045Z,0.60
2023-03-25T18:41:21.922Z,0.70
2023-03-25T18:44:04.521Z,0.70
2023-03-25T18:46:47.426Z,0.65
2023-03-25T18:49:30.587Z,0.85
2023-03-25T18:52:14.529Z,0.60
2023-03-25T18:54:57.423Z,0.80
2023-03-25T18:57:40.170Z,0.75
2023-03-25T19:00:24.165Z,0.50
2023-03-25T19:03:07.300Z,0.65
2023-03-25T19:05:50.017Z,0.60
2023-03-25T19:08:34.519Z,0.60
2023-03-25T19:11:21.805Z,0.70
2023-03-25T19:14:04.966Z,0.70
2023-03-25T19:17:01.189Z,0.77
2023-03-25T19:19:46.611Z,0.68
2023-03-25T19:22:29.399Z,0.90
2023-03-25T19:25:13.548Z,0.85
2023-03-25T19:27:56.546Z,1.00
2023-03-25T19:30:39.251Z,1.00
2023-03-25T19:33:21.955Z,0.80
2023-03-25T19:36:04.941Z,0.65
2023-03-25T19:38:47.843Z,0.93
2023-03-25T19:41:32.103Z,1.10
2023-03-25T19:44:14.865Z,1.00
2023-03-25T19:46:57.556Z,0.95
2023-03-25T19:49:40.506Z,0.90
2023-03-25T19:52:23.158Z,0.93
2023-03-25T19:55:06.246Z,0.73
2023-03-25T19:57:51.201Z,0.90
2023-03-25T20:00:33.841Z,1.10
2023-03-25T20:03:16.527Z,1.17
2023-03-25T20:05:59.530Z,1.00
2023-03-25T20:08:42.221Z,1.00
2023-03-25T20:11:24.873Z,1.10
2023-03-25T20:14:09.298Z,1.17
2023-03-25T20:16:51.976Z,1.40
2023-03-25T20:19:34.607Z,1.25
2023-03-25T20:22:24.953Z,1.20
2023-03-25T20:25:08.722Z,1.10
2023-03-25T20:27:51.591Z,0.90
2023-03-25T20:30:36.007Z,1.33
2023-03-25T20:33:19.193Z,1.02
2023-03-25T20:36:01.968Z,1.02
2023-03-25T20:38:56.168Z,1.10
2023-03-25T20:41:40.107Z,1.10
2023-03-25T20:44:22.905Z,1.27
2023-03-25T20:47:09.390Z,1.38
2023-03-25T20:49:52.925Z,1.23
2023-03-25T20:52:35.927Z,1.20
2023-03-25T20:55:18.790Z,1.02
2023-03-25T20:58:01.632Z,1.17
2023-03-25T21:00:46.948Z,1.17
2023-03-25T21:03:31.193Z,0.95
2023-03-25T21:09:07.365Z,1.30
2023-03-25T21:11:50.368Z,1.20
2023-03-25T21:14:33.013Z,1.00
2023-03-25T21:17:15.966Z,1.00
2023-03-25T21:20:00.095Z,1.10
2023-03-25T21:22:44.245Z,1.20
2023-03-25T21:25:34.012Z,1.00
2023-03-25T21:28:18.197Z,1.10
2023-03-25T21:31:03.473Z,1.30
2023-03-25T21:33:48.792Z,1.23
2023-03-25T21:36:34.021Z,1.10
2023-03-25T21:39:16.984Z,1.10
2023-03-25T21:41:59.602Z,1.60
2023-03-25T21:44:52.848Z,1.10
2023-03-25T21:47:35.939Z,1.20
2023-03-25T21:50:18.978Z,1.10
2023-03-25T21:53:05.641Z,1.20
2023-03-25T21:55:50.641Z,1.55
2023-03-25T21:58:36.168Z,1.20
2023-03-25T22:01:23.332Z,1.40
2023-03-25T22:04:06.212Z,1.27
2023-03-25T22:06:48.873Z,1.00
2023-03-25T22:09:32.884Z,1.23
2023-03-25T22:12:15.596Z,0.95
2023-03-25T22:14:58.288Z,0.93
2023-03-25T22:17:41.004Z,1.58
2023-03-25T22:20:23.647Z,1.40
2023-03-25T22:23:06.751Z,1.15
2023-03-25T22:25:50.770Z,1.45
2023-03-25T22:28:33.346Z,1.63
2023-03-25T22:31:17.098Z,1.30
2023-03-25T22:34:02.994Z,1.38
2023-03-25T22:36:49.846Z,1.40
2023-03-25T22:39:33.247Z,1.50
2023-03-25T22:42:17.287Z,1.40
2023-03-25T22:44:59.951Z,1.20
2023-03-25T22:47:42.847Z,1.40
2023-03-25T22:50:25.568Z,1.40
2023-03-25T22:53:08.178Z,1.35
2023-03-25T22:55:53.424Z,1.88
2023-03-25T22:58:38.135Z,1.90
2023-03-25T23:01:21.917Z,1.40
2023-03-25T23:04:04.686Z,1.55
2023-03-25T23:07:00.589Z,1.30
2023-03-25T23:09:49.750Z,1.25
2023-03-25T23:12:32.366Z,1.20
2023-03-25T23:15:16.338Z,0.82
2023-03-25T23:17:58.978Z,1.02
2023-03-25T23:20:42.020Z,0.90
2023-03-25T23:23:25.344Z,1.15
2023-03-25T23:26:09.010Z,1.10
2023-03-25T23:28:51.693Z,1.27
2023-03-25T23:31:36.109Z,1.30
2023-03-25T23:34:18.804Z,1.15
2023-03-25T23:37:01.586Z,1.58
2023-03-25T23:39:46.272Z,1.02
2023-03-25T23:42:35.602Z,1.77
2023-03-25T23:45:18.805Z,1.50
2023-03-25T23:48:03.045Z,1.70
2023-03-25T23:50:47.036Z,1.25
2023-03-25T23:53:29.711Z,1.30
2023-03-25T23:56:12.853Z,1.50
2023-03-25T23:58:55.905Z,1.65
